createdAt,value
2019-04-16T14:17:18.597Z,57.21
2019-04-16T14:17:59.463Z,58.06
2019-04-16T14:18:39.344Z,57.96
2019-04-16T14:59:10.410Z,58.51
2019-04-16T15:02:17.005Z,57.93
2019-04-16T15:02:58.464Z,57.93
2019-04-16T15:05:15.723Z,56.13
2019-04-16T15:05:53.958Z,56.51
2019-04-16T15:06:34.795Z,56.51
2019-04-16T15:07:15.529Z,56.32
2019-04-16T15:07:56.266Z,55.74
2019-04-16T15:08:37.011Z,56.71
2019-04-16T15:09:17.717Z,57.09
2019-04-16T15:10:01.320Z,56.51
2019-04-16T15:10:39.257Z,56.61
2019-04-16T15:11:20.053Z,57.38
2019-04-16T15:12:03.165Z,57.19
2019-04-16T15:12:42.523Z,57.38
2019-04-16T15:13:23.338Z,57.57
2019-04-16T15:14:05.163Z,57.29
2019-04-16T15:14:47.598Z,57.48
2019-04-16T15:15:28.588Z,57.57
2019-04-16T15:16:13.370Z,57.64
2019-04-16T15:16:50.852Z,57.64
2019-04-16T15:17:30.751Z,57.35
2019-04-16T15:18:11.687Z,57.06
2019-04-16T15:18:54.516Z,56.96
2019-04-16T15:19:37.197Z,56.87
2019-04-16T15:20:19.304Z,56.58
2019-04-16T15:21:03.059Z,56.68
2019-04-16T15:21:43.882Z,57.45
2019-04-16T15:22:22.487Z,56.96
2019-04-16T15:23:03.176Z,56.96
2019-04-16T15:23:43.880Z,57.16
2019-04-16T15:24:24.640Z,57.26
2019-04-16T15:26:12.818Z,56.74
2019-04-16T15:26:56.343Z,57.16
2019-04-16T15:27:37.303Z,56.87
2019-04-16T15:28:18.153Z,57.06
2019-04-16T15:28:59.128Z,56.96
2019-04-16T15:29:40.905Z,56.68
2019-04-16T15:30:28.244Z,56.58
2019-04-16T15:31:09.069Z,57.74
2019-04-16T15:31:50.054Z,56.96
2019-04-16T15:32:34.039Z,56.77
2019-04-16T15:33:12.327Z,57.06
2019-04-16T15:33:53.244Z,57.06
2019-04-16T15:34:34.402Z,57.26
2019-04-16T15:35:15.276Z,57.84
2019-04-16T15:35:56.455Z,57.26
2019-04-16T15:36:37.086Z,57.45
2019-04-16T15:37:17.870Z,56.87
2019-04-16T15:37:59.272Z,56.96
2019-04-16T15:38:39.742Z,56.68
2019-04-16T15:39:20.514Z,56.96
2019-04-16T15:40:01.294Z,56.39
2019-04-16T15:40:42.110Z,56.77
2019-04-16T15:41:23.223Z,56.96
2019-04-16T15:42:04.617Z,56.87
2019-04-16T15:42:48.308Z,56.68
2019-04-16T15:43:28.203Z,56.77
2019-04-16T15:44:13.142Z,56.58
2019-04-16T15:44:55.869Z,56.58
2019-04-16T15:45:35.309Z,56.68
2019-04-16T15:46:25.960Z,56.96
2019-04-16T15:46:56.967Z,57.84
2019-04-16T15:47:37.719Z,56.77
2019-04-16T15:48:20.379Z,56.48
2019-04-16T15:49:07.328Z,55.81
2019-04-16T15:49:50.071Z,56.58
2019-04-16T15:50:35.036Z,56.87
2019-04-16T15:51:14.786Z,56.39
2019-04-16T15:51:54.816Z,56.2
2019-04-16T15:52:35.698Z,56.39
2019-04-16T15:53:16.502Z,56.48
2019-04-16T15:53:57.629Z,56
2019-04-16T15:54:39.245Z,56.77
2019-04-16T15:55:20.150Z,56.87
2019-04-16T15:56:01.409Z,56.96
2019-04-16T15:56:42.738Z,55.52
2019-04-16T15:57:26.586Z,56
2019-04-16T15:58:11.336Z,55.42
2019-04-16T15:58:55.991Z,55.04
2019-04-16T15:59:39.394Z,54.84
2019-04-16T16:00:24.353Z,55.62
2019-04-16T16:01:06.655Z,56.26
2019-04-16T16:01:48.306Z,55.33
2019-04-16T16:02:30.287Z,55.52
2019-04-16T16:03:11.530Z,54.72
2019-04-16T16:03:53.302Z,55.9
2019-04-16T16:04:34.933Z,55.49
2019-04-16T16:05:16.571Z,55.3
2019-04-16T16:05:57.655Z,55.42
2019-04-16T16:06:39.290Z,55.23
2019-04-16T16:07:23.925Z,55.71
2019-04-16T16:08:02.723Z,56.48
2019-04-16T16:08:43.415Z,56.77
2019-04-16T16:09:24.392Z,56.48
2019-04-16T16:10:05.354Z,56.77
2019-04-16T16:10:46.020Z,56.39
2019-04-16T16:11:26.699Z,56.39
2019-04-16T16:12:10.018Z,56.39
2019-04-16T16:12:50.804Z,56.58
2019-04-16T16:13:29.363Z,56.58
2019-04-16T16:14:10.195Z,56.87
2019-04-16T16:14:52.193Z,56.77
2019-04-16T16:15:33.261Z,56.1
2019-04-16T16:16:17.935Z,56.96
2019-04-16T16:16:55.127Z,56.77
2019-04-16T16:17:35.621Z,56.29
2019-04-16T16:18:16.599Z,56.87
2019-04-16T16:18:57.440Z,56.77
2019-04-16T16:19:38.306Z,56.96
2019-04-16T16:20:19.311Z,56.48
2019-04-16T16:21:01.356Z,56.58
2019-04-16T16:21:43.003Z,55.78
2019-04-16T16:22:23.804Z,55.9
2019-04-16T16:23:04.901Z,55.78
2019-04-16T16:23:45.801Z,56.29
2019-04-16T16:24:26.748Z,56.77
2019-04-16T16:25:07.609Z,56.87
2019-04-16T16:25:48.839Z,56.56
2019-04-16T16:26:29.513Z,56.29
2019-04-16T16:27:10.762Z,56.68
2019-04-16T16:27:51.438Z,56.29
2019-04-16T16:28:32.295Z,56.77
2019-04-16T16:29:13.012Z,56.2
2019-04-16T16:29:54.343Z,56.39
2019-04-16T16:30:34.671Z,56.74
2019-04-16T16:31:15.489Z,56.68
2019-04-16T16:31:56.410Z,56.07
2019-04-16T16:32:37.244Z,56.1
2019-04-16T16:33:18.127Z,56.56
2019-04-16T16:33:58.916Z,56.29
2019-04-16T16:34:40.099Z,56.39
2019-04-16T16:35:20.682Z,56.77
2019-04-16T16:36:01.476Z,56.36
2019-04-16T16:36:42.291Z,56.94
2019-04-16T16:37:23.206Z,56.96
2019-04-16T16:38:03.969Z,56.48
2019-04-16T16:38:48.221Z,57.26
2019-04-16T16:39:25.509Z,56.1
2019-04-16T16:40:06.314Z,57.16
2019-04-16T16:40:49.686Z,56.58
2019-04-16T16:41:27.934Z,56.39
2019-04-16T16:42:08.673Z,56.68
2019-04-16T16:42:49.663Z,56.94
2019-04-16T16:43:30.385Z,56.96
2019-04-16T16:44:11.130Z,56.96
2019-04-16T16:44:52.324Z,57.16
2019-04-16T16:45:33.113Z,56.94
2019-04-16T16:46:14.018Z,56.65
2019-04-16T16:46:56.876Z,56.1
2019-04-16T16:47:35.453Z,57.04
2019-04-16T16:48:16.191Z,56.65
2019-04-16T16:48:57.031Z,56.87
2019-04-16T16:49:37.936Z,56.96
2019-04-16T16:50:18.702Z,56.96
2019-04-16T16:50:59.489Z,57.06
2019-04-16T16:51:40.214Z,57.06
2019-04-16T16:52:21.071Z,57.62
2019-04-16T16:53:01.798Z,57.04
2019-04-16T16:53:42.708Z,56.94
2019-04-16T16:54:23.580Z,57.45
2019-04-16T16:55:04.445Z,57.16
2019-04-16T16:55:45.292Z,56.96
2019-04-16T16:56:26.002Z,56.58
2019-04-16T16:57:08.379Z,56.77
2019-04-16T16:57:47.520Z,56.39
2019-04-16T16:58:28.512Z,56.94
2019-04-16T16:59:09.360Z,56.77
2019-04-16T16:59:50.143Z,57.06
2019-04-16T17:00:30.904Z,57.16
2019-04-16T17:01:13.853Z,56.87
2019-04-16T17:01:54.428Z,56.07
2019-04-16T17:02:33.250Z,57.35
2019-04-16T17:03:14.077Z,56.58
2019-04-16T17:03:55.062Z,56.39
2019-04-16T17:05:28.025Z,56.1
2019-04-16T17:06:11.867Z,56.68
2019-04-16T17:06:54.071Z,56.29
2019-04-16T17:07:36.888Z,56.77
2019-04-16T17:08:19.480Z,56.1
2019-04-16T17:09:02.581Z,56.87
